[ EDKA 231750Z AUTO 29006KT 9999 ///////// 22/13 Q1020 ]
Windrichtung (graph.)
Inst: 286° 3.7 kt
2min: 283° 4 kt
10min: 285° 4.2 kt
Extrem: 265° – 304° 5.8 kt – 2.5 kt
Crosswind: -2.2 kt
Luftdruck (graph.)
QNH: 1020 hPa Temp: 21.3 °C
QNH: 30.12 inHg DewP: 13.0 °C
QFE: 997 hPa Hum: 59.0 %
QFE: 29.47 inHg